sensor_id;sensor_type;location;lat;lon;timestamp;temperature;humidity
36206;DHT22;22242;48.796;9.930;2023-05-07T00:01:45;12.30;99.90
36206;DHT22;22242;48.796;9.930;2023-05-07T00:04:12;12.20;99.90
36206;DHT22;22242;48.796;9.930;2023-05-07T00:06:39;12.20;99.90
36206;DHT22;22242;48.796;9.930;2023-05-07T00:09:07;12.20;99.90
36206;DHT22;22242;48.796;9.930;2023-05-07T00:11:34;12.10;99.90
36206;DHT22;22242;48.796;9.930;2023-05-07T00:14:01;12.00;99.90
36206;DHT22;22242;48.796;9.930;2023-05-07T00:16:28;12.00;99.90
36206;DHT22;22242;48.796;9.930;2023-05-07T00:18:56;12.00;99.90
36206;DHT22;22242;48.796;9.930;2023-05-07T00:21:23;11.90;99.90
36206;DHT22;22242;48.796;9.930;2023-05-07T00:23:52;11.90;99.90
36206;DHT22;22242;48.796;9.930;2023-05-07T00:26:19;12.00;99.90
36206;DHT22;22242;48.796;9.930;2023-05-07T00:28:49;12.10;99.90
36206;DHT22;22242;48.796;9.930;2023-05-07T00:31:16;12.00;99.90
36206;DHT22;22242;48.796;9.930;2023-05-07T00:33:43;12.00;99.90
36206;DHT22;22242;48.796;9.930;2023-05-07T00:36:11;12.10;99.90
36206;DHT22;22242;48.796;9.930;2023-05-07T00:38:38;12.00;99.90
36206;DHT22;22242;48.796;9.930;2023-05-07T00:41:05;12.00;99.90
36206;DHT22;22242;48.796;9.930;2023-05-07T00:43:33;12.00;99.90
36206;DHT22;22242;48.796;9.930;2023-05-07T00:46:00;12.00;99.90
36206;DHT22;22242;48.796;9.930;2023-05-07T00:48:27;12.10;99.90
36206;DHT22;22242;48.796;9.930;2023-05-07T00:50:54;12.00;99.90
36206;DHT22;22242;48.796;9.930;2023-05-07T00:53:23;11.90;99.90
36206;DHT22;22242;48.796;9.930;2023-05-07T00:55:50;11.90;99.90
36206;DHT22;22242;48.796;9.930;2023-05-07T00:58:17;11.80;99.90
36206;DHT22;22242;48.796;9.930;2023-05-07T01:00:44;11.90;99.90
36206;DHT22;22242;48.796;9.930;2023-05-07T01:03:11;11.90;99.90
36206;DHT22;22242;48.796;9.930;2023-05-07T01:05:39;11.80;99.90
36206;DHT22;22242;48.796;9.930;2023-05-07T01:08:06;11.80;99.90
36206;DHT22;22242;48.796;9.930;2023-05-07T01:10:35;11.80;99.90
36206;DHT22;22242;48.796;9.930;2023-05-07T01:13:03;11.80;99.90
36206;DHT22;22242;48.796;9.930;2023-05-07T01:15:30;11.80;99.90
36206;DHT22;22242;48.796;9.930;2023-05-07T01:17:57;11.80;99.90
36206;DHT22;22242;48.796;9.930;2023-05-07T01:20:31;11.60;99.90
36206;DHT22;22242;48.796;9.930;2023-05-07T01:23:00;11.60;99.90
36206;DHT22;22242;48.796;9.930;2023-05-07T01:25:27;11.70;99.90
36206;DHT22;22242;48.796;9.930;2023-05-07T01:27:59;11.70;99.90
36206;DHT22;22242;48.796;9.930;2023-05-07T01:30:30;11.70;99.90
36206;DHT22;22242;48.796;9.930;2023-05-07T01:33:01;11.70;99.90
36206;DHT22;22242;48.796;9.930;2023-05-07T01:35:34;11.70;99.90
36206;DHT22;22242;48.796;9.930;2023-05-07T01:38:04;11.80;99.90
36206;DHT22;22242;48.796;9.930;2023-05-07T01:40:31;11.70;99.90
36206;DHT22;22242;48.796;9.930;2023-05-07T01:43:00;11.70;99.90
36206;DHT22;22242;48.796;9.930;2023-05-07T01:45:28;11.70;99.90
36206;DHT22;22242;48.796;9.930;2023-05-07T01:47:57;11.70;99.90
36206;DHT22;22242;48.796;9.930;2023-05-07T01:50:25;11.70;99.90
36206;DHT22;22242;48.796;9.930;2023-05-07T01:52:52;11.70;99.90
36206;DHT22;22242;48.796;9.930;2023-05-07T01:55:21;11.70;99.90
36206;DHT22;22242;48.796;9.930;2023-05-07T01:57:48;11.70;99.90
36206;DHT22;22242;48.796;9.930;2023-05-07T02:00:16;11.60;99.90
36206;DHT22;22242;48.796;9.930;2023-05-07T02:02:44;11.60;99.90
36206;DHT22;22242;48.796;9.930;2023-05-07T02:05:23;11.60;99.90
36206;DHT22;22242;48.796;9.930;2023-05-07T02:08:05;11.60;99.90
36206;DHT22;22242;48.796;9.930;2023-05-07T02:10:34;11.50;99.90
36206;DHT22;22242;48.796;9.930;2023-05-07T02:13:01;11.40;99.90
36206;DHT22;22242;48.796;9.930;2023-05-07T02:15:28;11.50;99.90
36206;DHT22;22242;48.796;9.930;2023-05-07T02:18:04;11.40;99.90
36206;DHT22;22242;48.796;9.930;2023-05-07T02:20:32;11.50;99.90
36206;DHT22;22242;48.796;9.930;2023-05-07T02:22:59;11.30;99.90
36206;DHT22;22242;48.796;9.930;2023-05-07T02:25:28;11.40;99.90
36206;DHT22;22242;48.796;9.930;2023-05-07T02:27:57;11.40;99.90
36206;DHT22;22242;48.796;9.930;2023-05-07T02:30:36;11.30;99.90
36206;DHT22;22242;48.796;9.930;2023-05-07T02:33:03;11.30;99.90
36206;DHT22;22242;48.796;9.930;2023-05-07T02:35:31;11.30;99.90
36206;DHT22;22242;48.796;9.930;2023-05-07T02:37:58;11.40;99.90
36206;DHT22;22242;48.796;9.930;2023-05-07T02:40:25;11.40;99.90
36206;DHT22;22242;48.796;9.930;2023-05-07T02:42:52;11.50;99.90
36206;DHT22;22242;48.796;9.930;2023-05-07T02:45:20;11.50;99.90
36206;DHT22;22242;48.796;9.930;2023-05-07T02:47:49;11.60;99.90
36206;DHT22;22242;48.796;9.930;2023-05-07T02:50:16;11.60;99.90
36206;DHT22;22242;48.796;9.930;2023-05-07T02:52:43;11.60;99.90
36206;DHT22;22242;48.796;9.930;2023-05-07T02:55:11;11.70;99.90
36206;DHT22;22242;48.796;9.930;2023-05-07T02:57:38;11.60;99.90
36206;DHT22;22242;48.796;9.930;2023-05-07T03:00:13;11.60;99.90
36206;DHT22;22242;48.796;9.930;2023-05-07T03:02:49;11.70;99.90
36206;DHT22;22242;48.796;9.930;2023-05-07T03:05:16;11.70;99.90
36206;DHT22;22242;48.796;9.930;2023-05-07T03:07:43;11.60;99.90
36206;DHT22;22242;48.796;9.930;2023-05-07T03:10:12;11.50;99.90
36206;DHT22;22242;48.796;9.930;2023-05-07T03:12:39;11.50;99.90
36206;DHT22;22242;48.796;9.930;2023-05-07T03:15:09;11.50;99.90
36206;DHT22;22242;48.796;9.930;2023-05-07T03:17:37;11.50;99.90
36206;DHT22;22242;48.796;9.930;2023-05-07T03:20:06;11.50;99.90
36206;DHT22;22242;48.796;9.930;2023-05-07T03:22:35;11.50;99.90
36206;DHT22;22242;48.796;9.930;2023-05-07T03:25:02;11.50;99.90
36206;DHT22;22242;48.796;9.930;2023-05-07T03:27:31;11.60;99.90
36206;DHT22;22242;48.796;9.930;2023-05-07T03:29:57;11.50;99.90
36206;DHT22;22242;48.796;9.930;2023-05-07T03:32:24;11.50;99.90
36206;DHT22;22242;48.796;9.930;2023-05-07T03:34:52;11.50;99.90
36206;DHT22;22242;48.796;9.930;2023-05-07T03:37:20;11.60;99.90
36206;DHT22;22242;48.796;9.930;2023-05-07T03:39:47;11.70;99.90
36206;DHT22;22242;48.796;9.930;2023-05-07T03:42:14;11.60;99.90
36206;DHT22;22242;48.796;9.930;2023-05-07T03:44:42;11.50;99.90
36206;DHT22;22242;48.796;9.930;2023-05-07T03:47:09;11.50;99.90
36206;DHT22;22242;48.796;9.930;2023-05-07T03:49:36;11.50;99.90
36206;DHT22;22242;48.796;9.930;2023-05-07T03:52:05;11.50;99.90
36206;DHT22;22242;48.796;9.930;2023-05-07T03:54:33;11.50;99.90
36206;DHT22;22242;48.796;9.930;2023-05-07T03:57:01;11.50;99.90
36206;DHT22;22242;48.796;9.930;2023-05-07T03:59:28;11.40;99.90
36206;DHT22;22242;48.796;9.930;2023-05-07T04:01:55;11.40;99.90
36206;DHT22;22242;48.796;9.930;2023-05-07T04:04:23;11.50;99.90
36206;DHT22;22242;48.796;9.930;2023-05-07T04:06:51;11.50;99.90
36206;DHT22;22242;48.796;9.930;2023-05-07T04:09:18;11.50;99.90
36206;DHT22;22242;48.796;9.930;2023-05-07T04:11:48;11.50;99.90
36206;DHT22;22242;48.796;9.930;2023-05-07T04:14:15;11.50;99.90
36206;DHT22;22242;48.796;9.930;2023-05-07T04:16:42;11.50;99.90
36206;DHT22;22242;48.796;9.930;2023-05-07T04:19:09;11.60;99.90
36206;DHT22;22242;48.796;9.930;2023-05-07T04:21:38;11.60;99.90
36206;DHT22;22242;48.796;9.930;2023-05-07T04:24:06;11.80;99.90
36206;DHT22;22242;48.796;9.930;2023-05-07T04:26:33;11.90;99.90
36206;DHT22;22242;48.796;9.930;2023-05-07T04:29:01;12.10;99.90
36206;DHT22;22242;48.796;9.930;2023-05-07T04:31:32;12.30;99.90
36206;DHT22;22242;48.796;9.930;2023-05-07T04:34:00;12.40;99.90
36206;DHT22;22242;48.796;9.930;2023-05-07T04:36:27;12.50;99.90
36206;DHT22;22242;48.796;9.930;2023-05-07T04:38:59;12.50;99.90
36206;DHT22;22242;48.796;9.930;2023-05-07T04:41:26;12.60;99.90
36206;DHT22;22242;48.796;9.930;2023-05-07T04:43:54;12.60;99.90
36206;DHT22;22242;48.796;9.930;2023-05-07T04:46:25;13.40;99.90
36206;DHT22;22242;48.796;9.930;2023-05-07T04:48:55;13.50;99.90
36206;DHT22;22242;48.796;9.930;2023-05-07T04:51:22;13.40;99.90
36206;DHT22;22242;48.796;9.930;2023-05-07T04:53:49;13.60;99.90
36206;DHT22;22242;48.796;9.930;2023-05-07T04:56:17;13.60;99.90
36206;DHT22;22242;48.796;9.930;2023-05-07T04:58:45;13.50;99.90
36206;DHT22;22242;48.796;9.930;2023-05-07T05:01:14;13.50;99.90
36206;DHT22;22242;48.796;9.930;2023-05-07T05:03:43;13.70;99.90
36206;DHT22;22242;48.796;9.930;2023-05-07T05:06:11;13.80;99.90
36206;DHT22;22242;48.796;9.930;2023-05-07T05:08:38;14.00;99.90
36206;DHT22;22242;48.796;9.930;2023-05-07T05:11:05;14.20;99.90
36206;DHT22;22242;48.796;9.930;2023-05-07T05:13:34;14.60;99.90
36206;DHT22;22242;48.796;9.930;2023-05-07T05:16:07;14.90;99.90
36206;DHT22;22242;48.796;9.930;2023-05-07T05:18:35;14.80;99.90
36206;DHT22;22242;48.796;9.930;2023-05-07T05:21:03;14.70;99.90
36206;DHT22;22242;48.796;9.930;2023-05-07T05:23:31;14.80;99.90
36206;DHT22;22242;48.796;9.930;2023-05-07T05:25:59;14.90;99.90
36206;DHT22;22242;48.796;9.930;2023-05-07T05:28:30;15.10;99.90
36206;DHT22;22242;48.796;9.930;2023-05-07T05:30:57;15.10;99.90
36206;DHT22;22242;48.796;9.930;2023-05-07T05:33:26;15.20;99.90
36206;DHT22;22242;48.796;9.930;2023-05-07T05:35:54;15.00;99.90
36206;DHT22;22242;48.796;9.930;2023-05-07T05:38:23;15.30;99.90
36206;DHT22;22242;48.796;9.930;2023-05-07T05:40:50;15.60;99.90
36206;DHT22;22242;48.796;9.930;2023-05-07T05:43:17;15.80;99.90
36206;DHT22;22242;48.796;9.930;2023-05-07T05:45:44;15.80;99.90
36206;DHT22;22242;48.796;9.930;2023-05-07T05:48:11;15.90;99.90
36206;DHT22;22242;48.796;9.930;2023-05-07T05:50:57;15.80;99.90
36206;DHT22;22242;48.796;9.930;2023-05-07T05:53:25;16.10;99.90
36206;DHT22;22242;48.796;9.930;2023-05-07T05:55:53;16.40;99.90
36206;DHT22;22242;48.796;9.930;2023-05-07T05:58:20;16.60;99.90
36206;DHT22;22242;48.796;9.930;2023-05-07T06:00:53;17.10;99.90
36206;DHT22;22242;48.796;9.930;2023-05-07T06:03:23;16.80;99.90
36206;DHT22;22242;48.796;9.930;2023-05-07T06:05:51;16.40;99.90
36206;DHT22;22242;48.796;9.930;2023-05-07T06:08:20;16.20;99.90
36206;DHT22;22242;48.796;9.930;2023-05-07T06:10:48;16.10;99.90
36206;DHT22;22242;48.796;9.930;2023-05-07T06:13:16;16.30;99.90
36206;DHT22;22242;48.796;9.930;2023-05-07T06:15:43;17.00;99.90
36206;DHT22;22242;48.796;9.930;2023-05-07T06:18:12;17.60;99.90
36206;DHT22;22242;48.796;9.930;2023-05-07T06:20:40;18.10;99.90
36206;DHT22;22242;48.796;9.930;2023-05-07T06:23:14;19.30;99.90
36206;DHT22;22242;48.796;9.930;2023-05-07T06:25:41;19.50;99.90
36206;DHT22;22242;48.796;9.930;2023-05-07T06:28:09;20.20;99.90
36206;DHT22;22242;48.796;9.930;2023-05-07T06:30:40;20.60;99.90
36206;DHT22;22242;48.796;9.930;2023-05-07T06:33:07;21.20;99.90
36206;DHT22;22242;48.796;9.930;2023-05-07T06:35:34;21.10;99.10
36206;DHT22;22242;48.796;9.930;2023-05-07T06:38:01;21.30;98.70
36206;DHT22;22242;48.796;9.930;2023-05-07T06:40:30;21.10;97.50
36206;DHT22;22242;48.796;9.930;2023-05-07T06:42:59;21.10;98.00
36206;DHT22;22242;48.796;9.930;2023-05-07T06:45:46;20.90;98.30
36206;DHT22;22242;48.796;9.930;2023-05-07T06:48:14;20.00;99.70
36206;DHT22;22242;48.796;9.930;2023-05-07T06:50:51;19.70;99.90
36206;DHT22;22242;48.796;9.930;2023-05-07T06:53:21;20.10;99.90
36206;DHT22;22242;48.796;9.930;2023-05-07T06:55:49;20.90;99.70
36206;DHT22;22242;48.796;9.930;2023-05-07T06:58:18;20.80;99.60
36206;DHT22;22242;48.796;9.930;2023-05-07T07:00:48;20.90;99.00
36206;DHT22;22242;48.796;9.930;2023-05-07T07:03:15;20.30;99.90
36206;DHT22;22242;48.796;9.930;2023-05-07T07:05:43;19.90;99.90
36206;DHT22;22242;48.796;9.930;2023-05-07T07:08:11;19.80;99.90
36206;DHT22;22242;48.796;9.930;2023-05-07T07:10:39;19.90;99.90
36206;DHT22;22242;48.796;9.930;2023-05-07T07:13:06;20.40;99.90
36206;DHT22;22242;48.796;9.930;2023-05-07T07:15:33;21.00;99.80
36206;DHT22;22242;48.796;9.930;2023-05-07T07:18:02;21.30;98.20
36206;DHT22;22242;48.796;9.930;2023-05-07T07:20:29;21.20;98.60
36206;DHT22;22242;48.796;9.930;2023-05-07T07:22:56;21.60;98.30
36206;DHT22;22242;48.796;9.930;2023-05-07T07:25:23;21.20;97.50
36206;DHT22;22242;48.796;9.930;2023-05-07T07:27:51;21.30;98.60
36206;DHT22;22242;48.796;9.930;2023-05-07T07:30:20;21.10;98.00
36206;DHT22;22242;48.796;9.930;2023-05-07T07:32:48;20.90;97.70
36206;DHT22;22242;48.796;9.930;2023-05-07T07:35:17;20.70;98.60
36206;DHT22;22242;48.796;9.930;2023-05-07T07:37:44;20.80;98.60
36206;DHT22;22242;48.796;9.930;2023-05-07T07:40:14;20.50;99.40
36206;DHT22;22242;48.796;9.930;2023-05-07T07:42:41;20.00;99.90
36206;DHT22;22242;48.796;9.930;2023-05-07T07:45:10;20.30;99.90
36206;DHT22;22242;48.796;9.930;2023-05-07T07:47:41;21.10;99.90
36206;DHT22;22242;48.796;9.930;2023-05-07T07:50:09;22.40;97.10
36206;DHT22;22242;48.796;9.930;2023-05-07T07:52:38;22.20;96.50
36206;DHT22;22242;48.796;9.930;2023-05-07T07:55:07;23.10;93.50
36206;DHT22;22242;48.796;9.930;2023-05-07T07:57:35;22.70;95.10
36206;DHT22;22242;48.796;9.930;2023-05-07T08:00:03;25.20;92.10
36206;DHT22;22242;48.796;9.930;2023-05-07T08:02:42;25.20;89.20
36206;DHT22;22242;48.796;9.930;2023-05-07T08:05:13;26.30;84.40
36206;DHT22;22242;48.796;9.930;2023-05-07T08:07:44;27.00;79.40
36206;DHT22;22242;48.796;9.930;2023-05-07T08:10:13;26.50;79.50
36206;DHT22;22242;48.796;9.930;2023-05-07T08:12:48;28.20;73.70
36206;DHT22;22242;48.796;9.930;2023-05-07T08:15:16;27.70;74.30
36206;DHT22;22242;48.796;9.930;2023-05-07T08:17:44;26.60;78.30
36206;DHT22;22242;48.796;9.930;2023-05-07T08:20:11;25.80;78.40
36206;DHT22;22242;48.796;9.930;2023-05-07T08:22:39;24.60;80.80
36206;DHT22;22242;48.796;9.930;2023-05-07T08:25:09;25.40;81.30
36206;DHT22;22242;48.796;9.930;2023-05-07T08:27:37;26.70;77.90
36206;DHT22;22242;48.796;9.930;2023-05-07T08:30:05;26.90;74.50
36206;DHT22;22242;48.796;9.930;2023-05-07T08:32:32;27.70;74.40
36206;DHT22;22242;48.796;9.930;2023-05-07T08:35:00;28.00;73.50
36206;DHT22;22242;48.796;9.930;2023-05-07T08:37:27;27.70;70.10
36206;DHT22;22242;48.796;9.930;2023-05-07T08:39:55;27.00;73.30
36206;DHT22;22242;48.796;9.930;2023-05-07T08:42:28;28.10;67.80
36206;DHT22;22242;48.796;9.930;2023-05-07T08:44:57;27.70;69.80
36206;DHT22;22242;48.796;9.930;2023-05-07T08:47:30;27.60;70.90
36206;DHT22;22242;48.796;9.930;2023-05-07T08:50:01;27.10;72.60
36206;DHT22;22242;48.796;9.930;2023-05-07T08:52:28;29.10;65.20
36206;DHT22;22242;48.796;9.930;2023-05-07T08:54:56;29.90;62.90
36206;DHT22;22242;48.796;9.930;2023-05-07T08:57:24;30.40;63.10
36206;DHT22;22242;48.796;9.930;2023-05-07T08:59:54;28.20;64.70
36206;DHT22;22242;48.796;9.930;2023-05-07T09:02:22;28.60;65.20
36206;DHT22;22242;48.796;9.930;2023-05-07T09:04:49;27.80;64.80
36206;DHT22;22242;48.796;9.930;2023-05-07T09:07:16;27.50;67.40
36206;DHT22;22242;48.796;9.930;2023-05-07T09:09:44;28.40;67.00
36206;DHT22;22242;48.796;9.930;2023-05-07T09:12:13;30.40;62.60
36206;DHT22;22242;48.796;9.930;2023-05-07T09:14:40;33.70;55.70
36206;DHT22;22242;48.796;9.930;2023-05-07T09:17:09;34.10;52.10
36206;DHT22;22242;48.796;9.930;2023-05-07T09:19:36;32.40;51.90
36206;DHT22;22242;48.796;9.930;2023-05-07T09:22:05;31.60;52.30
36206;DHT22;22242;48.796;9.930;2023-05-07T09:24:47;31.00;54.10
36206;DHT22;22242;48.796;9.930;2023-05-07T09:27:17;30.50;54.30
36206;DHT22;22242;48.796;9.930;2023-05-07T09:29:45;29.00;55.00
36206;DHT22;22242;48.796;9.930;2023-05-07T09:32:15;28.20;56.30
36206;DHT22;22242;48.796;9.930;2023-05-07T09:34:42;27.90;57.60
36206;DHT22;22242;48.796;9.930;2023-05-07T09:37:12;26.10;61.30
36206;DHT22;22242;48.796;9.930;2023-05-07T09:39:41;25.80;63.10
36206;DHT22;22242;48.796;9.930;2023-05-07T09:42:09;25.10;63.80
36206;DHT22;22242;48.796;9.930;2023-05-07T09:44:37;24.80;65.00
36206;DHT22;22242;48.796;9.930;2023-05-07T09:47:10;26.10;67.10
36206;DHT22;22242;48.796;9.930;2023-05-07T09:49:47;27.70;62.40
36206;DHT22;22242;48.796;9.930;2023-05-07T09:52:19;28.30;58.80
36206;DHT22;22242;48.796;9.930;2023-05-07T09:54:51;27.60;59.90
36206;DHT22;22242;48.796;9.930;2023-05-07T09:57:24;29.30;58.50
36206;DHT22;22242;48.796;9.930;2023-05-07T09:59:58;26.70;56.20
36206;DHT22;22242;48.796;9.930;2023-05-07T10:02:30;26.70;59.10
36206;DHT22;22242;48.796;9.930;2023-05-07T10:05:00;26.90;59.90
36206;DHT22;22242;48.796;9.930;2023-05-07T10:07:30;26.50;60.50
36206;DHT22;22242;48.796;9.930;2023-05-07T10:10:05;25.70;63.80
36206;DHT22;22242;48.796;9.930;2023-05-07T10:12:37;24.80;66.70
36206;DHT22;22242;48.796;9.930;2023-05-07T10:15:12;25.00;65.50
36206;DHT22;22242;48.796;9.930;2023-05-07T10:17:43;25.50;64.10
36206;DHT22;22242;48.796;9.930;2023-05-07T10:20:13;25.00;67.10
36206;DHT22;22242;48.796;9.930;2023-05-07T10:22:44;24.70;68.10
36206;DHT22;22242;48.796;9.930;2023-05-07T10:25:17;25.30;65.90
36206;DHT22;22242;48.796;9.930;2023-05-07T10:27:46;24.70;66.40
36206;DHT22;22242;48.796;9.930;2023-05-07T10:30:24;26.30;64.80
36206;DHT22;22242;48.796;9.930;2023-05-07T10:32:55;27.40;62.40
36206;DHT22;22242;48.796;9.930;2023-05-07T10:35:32;26.80;64.00
36206;DHT22;22242;48.796;9.930;2023-05-07T10:38:03;26.60;62.50
36206;DHT22;22242;48.796;9.930;2023-05-07T10:40:33;26.50;62.10
36206;DHT22;22242;48.796;9.930;2023-05-07T10:43:03;25.50;63.90
36206;DHT22;22242;48.796;9.930;2023-05-07T10:45:37;24.70;65.60
36206;DHT22;22242;48.796;9.930;2023-05-07T10:48:10;24.10;67.70
36206;DHT22;22242;48.796;9.930;2023-05-07T10:50:40;24.50;66.70
36206;DHT22;22242;48.796;9.930;2023-05-07T10:53:24;24.00;67.40
36206;DHT22;22242;48.796;9.930;2023-05-07T10:56:24;24.50;68.90
36206;DHT22;22242;48.796;9.930;2023-05-07T10:59:35;26.60;65.60
36206;DHT22;22242;48.796;9.930;2023-05-07T11:02:15;27.40;64.70
36206;DHT22;22242;48.796;9.930;2023-05-07T11:05:20;27.20;61.80
36206;DHT22;22242;48.796;9.930;2023-05-07T11:08:08;27.30;61.10
36206;DHT22;22242;48.796;9.930;2023-05-07T11:10:53;27.00;59.80
36206;DHT22;22242;48.796;9.930;2023-05-07T11:13:44;27.30;61.40
36206;DHT22;22242;48.796;9.930;2023-05-07T11:16:31;28.70;58.50
36206;DHT22;22242;48.796;9.930;2023-05-07T11:19:08;28.70;62.90
36206;DHT22;22242;48.796;9.930;2023-05-07T11:21:43;29.30;59.30
36206;DHT22;22242;48.796;9.930;2023-05-07T11:24:18;28.40;56.40
36206;DHT22;22242;48.796;9.930;2023-05-07T11:27:01;26.60;59.40
36206;DHT22;22242;48.796;9.930;2023-05-07T11:29:30;25.70;63.60
36206;DHT22;22242;48.796;9.930;2023-05-07T11:32:10;25.20;62.20
36206;DHT22;22242;48.796;9.930;2023-05-07T11:34:47;25.30;64.00
36206;DHT22;22242;48.796;9.930;2023-05-07T11:37:17;25.70;63.60
36206;DHT22;22242;48.796;9.930;2023-05-07T11:40:02;25.40;63.50
36206;DHT22;22242;48.796;9.930;2023-05-07T11:42:32;25.20;62.40
36206;DHT22;22242;48.796;9.930;2023-05-07T11:45:01;24.30;63.90
36206;DHT22;22242;48.796;9.930;2023-05-07T11:47:30;24.20;65.00
36206;DHT22;22242;48.796;9.930;2023-05-07T11:50:02;24.40;64.60
36206;DHT22;22242;48.796;9.930;2023-05-07T11:52:29;24.70;65.10
36206;DHT22;22242;48.796;9.930;2023-05-07T11:54:59;24.10;67.30
36206;DHT22;22242;48.796;9.930;2023-05-07T11:57:27;24.10;66.00
36206;DHT22;22242;48.796;9.930;2023-05-07T11:59:54;24.00;66.10
36206;DHT22;22242;48.796;9.930;2023-05-07T12:02:21;24.10;65.00
36206;DHT22;22242;48.796;9.930;2023-05-07T12:04:50;23.60;66.90
36206;DHT22;22242;48.796;9.930;2023-05-07T12:07:18;23.90;66.50
36206;DHT22;22242;48.796;9.930;2023-05-07T12:09:46;23.80;67.40
36206;DHT22;22242;48.796;9.930;2023-05-07T12:12:14;24.00;66.10
36206;DHT22;22242;48.796;9.930;2023-05-07T12:14:44;23.70;67.60
36206;DHT22;22242;48.796;9.930;2023-05-07T12:17:13;23.40;68.60
36206;DHT22;22242;48.796;9.930;2023-05-07T12:19:42;23.50;67.60
36206;DHT22;22242;48.796;9.930;2023-05-07T12:22:10;23.70;69.80
36206;DHT22;22242;48.796;9.930;2023-05-07T12:24:44;23.10;69.70
36206;DHT22;22242;48.796;9.930;2023-05-07T12:27:11;23.10;71.40
36206;DHT22;22242;48.796;9.930;2023-05-07T12:29:43;23.00;70.10
36206;DHT22;22242;48.796;9.930;2023-05-07T12:32:13;22.80;71.10
36206;DHT22;22242;48.796;9.930;2023-05-07T12:34:40;23.30;69.90
36206;DHT22;22242;48.796;9.930;2023-05-07T12:37:07;23.70;68.30
36206;DHT22;22242;48.796;9.930;2023-05-07T12:39:34;23.40;67.60
36206;DHT22;22242;48.796;9.930;2023-05-07T12:42:02;23.30;71.80
36206;DHT22;22242;48.796;9.930;2023-05-07T12:44:32;23.60;71.10
36206;DHT22;22242;48.796;9.930;2023-05-07T12:47:02;23.60;68.80
36206;DHT22;22242;48.796;9.930;2023-05-07T12:49:29;23.80;68.80
36206;DHT22;22242;48.796;9.930;2023-05-07T12:51:57;24.20;65.70
36206;DHT22;22242;48.796;9.930;2023-05-07T12:54:28;24.00;67.60
36206;DHT22;22242;48.796;9.930;2023-05-07T12:57:01;24.10;67.40
36206;DHT22;22242;48.796;9.930;2023-05-07T12:59:32;23.40;68.50
36206;DHT22;22242;48.796;9.930;2023-05-07T13:01:59;23.60;68.90
36206;DHT22;22242;48.796;9.930;2023-05-07T13:04:28;23.70;68.10
36206;DHT22;22242;48.796;9.930;2023-05-07T13:06:55;23.50;68.70
36206;DHT22;22242;48.796;9.930;2023-05-07T13:09:22;23.20;69.80
36206;DHT22;22242;48.796;9.930;2023-05-07T13:11:49;23.00;70.10
36206;DHT22;22242;48.796;9.930;2023-05-07T13:14:16;22.70;71.80
36206;DHT22;22242;48.796;9.930;2023-05-07T13:16:45;22.60;74.10
36206;DHT22;22242;48.796;9.930;2023-05-07T13:19:13;23.30;70.50
36206;DHT22;22242;48.796;9.930;2023-05-07T13:21:41;23.60;70.60
36206;DHT22;22242;48.796;9.930;2023-05-07T13:24:08;23.80;68.50
36206;DHT22;22242;48.796;9.930;2023-05-07T13:26:36;23.60;69.60
36206;DHT22;22242;48.796;9.930;2023-05-07T13:29:03;23.70;70.30
36206;DHT22;22242;48.796;9.930;2023-05-07T13:31:30;23.60;71.00
36206;DHT22;22242;48.796;9.930;2023-05-07T13:33:58;23.30;73.70
36206;DHT22;22242;48.796;9.930;2023-05-07T13:36:25;23.40;72.60
36206;DHT22;22242;48.796;9.930;2023-05-07T13:38:53;23.70;70.20
36206;DHT22;22242;48.796;9.930;2023-05-07T13:41:20;23.50;71.60
36206;DHT22;22242;48.796;9.930;2023-05-07T13:43:47;23.10;72.40
36206;DHT22;22242;48.796;9.930;2023-05-07T13:46:15;23.10;72.50
36206;DHT22;22242;48.796;9.930;2023-05-07T13:48:42;23.10;71.70
36206;DHT22;22242;48.796;9.930;2023-05-07T13:51:09;22.80;74.60
36206;DHT22;22242;48.796;9.930;2023-05-07T13:53:36;22.40;76.00
36206;DHT22;22242;48.796;9.930;2023-05-07T13:56:05;22.60;74.80
36206;DHT22;22242;48.796;9.930;2023-05-07T13:58:32;22.30;76.60
36206;DHT22;22242;48.796;9.930;2023-05-07T14:00:59;22.40;76.80
36206;DHT22;22242;48.796;9.930;2023-05-07T14:03:26;22.30;76.40
36206;DHT22;22242;48.796;9.930;2023-05-07T14:05:53;22.40;77.10
36206;DHT22;22242;48.796;9.930;2023-05-07T14:08:20;22.30;77.80
36206;DHT22;22242;48.796;9.930;2023-05-07T14:10:47;22.20;78.50
36206;DHT22;22242;48.796;9.930;2023-05-07T14:13:15;22.00;77.00
36206;DHT22;22242;48.796;9.930;2023-05-07T14:15:42;22.00;77.90
36206;DHT22;22242;48.796;9.930;2023-05-07T14:18:11;22.00;78.40
36206;DHT22;22242;48.796;9.930;2023-05-07T14:20:39;21.80;79.90
36206;DHT22;22242;48.796;9.930;2023-05-07T14:23:05;21.90;78.90
36206;DHT22;22242;48.796;9.930;2023-05-07T14:25:33;22.20;78.50
36206;DHT22;22242;48.796;9.930;2023-05-07T14:28:00;22.20;78.00
36206;DHT22;22242;48.796;9.930;2023-05-07T14:30:28;22.30;78.90
36206;DHT22;22242;48.796;9.930;2023-05-07T14:32:55;22.20;80.30
36206;DHT22;22242;48.796;9.930;2023-05-07T14:35:22;22.10;81.70
36206;DHT22;22242;48.796;9.930;2023-05-07T14:37:49;22.00;82.30
36206;DHT22;22242;48.796;9.930;2023-05-07T14:40:16;22.10;79.80
36206;DHT22;22242;48.796;9.930;2023-05-07T14:42:43;22.00;79.20
36206;DHT22;22242;48.796;9.930;2023-05-07T14:45:10;21.90;81.30
36206;DHT22;22242;48.796;9.930;2023-05-07T14:47:39;21.90;81.50
36206;DHT22;22242;48.796;9.930;2023-05-07T14:50:06;22.10;81.00
36206;DHT22;22242;48.796;9.930;2023-05-07T14:52:33;22.30;79.30
36206;DHT22;22242;48.796;9.930;2023-05-07T14:55:00;22.20;80.30
36206;DHT22;22242;48.796;9.930;2023-05-07T14:57:27;22.00;81.40
36206;DHT22;22242;48.796;9.930;2023-05-07T14:59:54;22.00;80.50
36206;DHT22;22242;48.796;9.930;2023-05-07T15:02:21;22.10;80.50
36206;DHT22;22242;48.796;9.930;2023-05-07T15:04:49;22.00;80.40
36206;DHT22;22242;48.796;9.930;2023-05-07T15:07:16;21.90;81.80
36206;DHT22;22242;48.796;9.930;2023-05-07T15:09:44;21.70;84.70
36206;DHT22;22242;48.796;9.930;2023-05-07T15:12:11;21.40;90.10
36206;DHT22;22242;48.796;9.930;2023-05-07T15:14:38;21.30;89.90
36206;DHT22;22242;48.796;9.930;2023-05-07T15:17:05;20.70;93.20
36206;DHT22;22242;48.796;9.930;2023-05-07T15:19:33;20.20;94.90
36206;DHT22;22242;48.796;9.930;2023-05-07T15:22:01;20.00;97.10
36206;DHT22;22242;48.796;9.930;2023-05-07T15:24:29;19.70;99.90
36206;DHT22;22242;48.796;9.930;2023-05-07T15:26:56;19.40;99.90
36206;DHT22;22242;48.796;9.930;2023-05-07T15:29:24;19.10;99.90
36206;DHT22;22242;48.796;9.930;2023-05-07T15:31:51;18.90;99.90
36206;DHT22;22242;48.796;9.930;2023-05-07T15:34:18;18.90;99.90
36206;DHT22;22242;48.796;9.930;2023-05-07T15:36:45;18.80;99.90
36206;DHT22;22242;48.796;9.930;2023-05-07T15:39:14;18.70;99.90
36206;DHT22;22242;48.796;9.930;2023-05-07T15:41:40;18.60;99.90
36206;DHT22;22242;48.796;9.930;2023-05-07T15:44:10;18.50;99.90